Time;durP1;ratioP1;P1;durP2;ratioP2;P2;SDS_P1;SDS_P2;PMS_P1;PMS_P2;Temp;Humidity;BMP_temperature;BMP_pressure;BME280_temperature;BME280_humidity;BME280_pressure;Samples;Min_cycle;Max_cycle;Signal;HPM_P1;HPM_P2
2024/02/24 00:02:40;;;;;;;4.88;3.97;;;6.00;59.90;;;;;;5040081;28;20484;-77
2024/02/24 00:05:26;;;;;;;5.78;3.80;;;6.00;59.40;;;;;;5042132;28;20492;-77
2024/02/24 00:08:11;;;;;;;3.55;3.25;;;5.90;59.30;;;;;;5037960;28;20052;-76
2024/02/24 00:10:56;;;;;;;5.03;3.47;;;5.90;59.30;;;;;;5041647;28;20089;-76
2024/02/24 00:13:41;;;;;;;6.22;4.18;;;5.90;59.30;;;;;;5039163;28;20545;-77
2024/02/24 00:16:25;;;;;;;5.47;3.95;;;5.90;59.30;;;;;;5039812;28;20625;-75
2024/02/24 00:19:10;;;;;;;7.20;4.43;;;5.80;59.20;;;;;;5037413;28;20033;-75
2024/02/24 00:21:55;;;;;;;4.13;3.58;;;5.80;59.10;;;;;;5038169;28;20723;-76
2024/02/24 00:24:39;;;;;;;6.15;3.88;;;5.80;59.20;;;;;;5033943;28;20471;-77
2024/02/24 00:27:25;;;;;;;3.83;3.53;;;5.80;59.20;;;;;;5036603;28;21063;-76
2024/02/24 00:30:10;;;;;;;5.38;3.45;;;5.80;59.20;;;;;;5026680;28;20137;-76
2024/02/24 00:32:54;;;;;;;4.72;3.55;;;5.70;59.10;;;;;;5040577;28;20098;-76
2024/02/24 00:35:39;;;;;;;5.93;4.20;;;5.70;59.20;;;;;;5033448;28;20048;-76
2024/02/24 00:38:24;;;;;;;3.92;3.58;;;5.60;59.00;;;;;;5034290;28;20099;-76
2024/02/24 00:41:08;;;;;;;4.03;3.58;;;5.60;59.00;;;;;;5033629;28;20937;-76
2024/02/24 00:43:53;;;;;;;6.35;4.50;;;5.60;59.10;;;;;;5041927;28;20102;-77
2024/02/24 00:46:38;;;;;;;6.03;4.57;;;5.50;58.90;;;;;;5031345;28;20036;-77
2024/02/24 00:49:22;;;;;;;7.50;4.20;;;5.50;58.90;;;;;;5034978;28;20465;-76
2024/02/24 00:52:07;;;;;;;6.38;4.57;;;5.50;59.00;;;;;;5032873;28;20194;-76
2024/02/24 00:54:51;;;;;;;7.43;4.70;;;5.40;58.90;;;;;;5034569;28;20086;-76
2024/02/24 00:57:36;;;;;;;6.53;5.05;;;5.40;58.90;;;;;;5023100;28;20111;-76
2024/02/24 01:00:21;;;;;;;8.45;4.88;;;5.40;58.90;;;;;;5045901;28;20094;-75
2024/02/24 01:03:05;;;;;;;6.50;5.05;;;5.40;58.90;;;;;;5040978;28;20044;-76
2024/02/24 01:05:50;;;;;;;5.57;4.38;;;5.30;58.80;;;;;;5036602;28;20551;-76
2024/02/24 01:08:34;;;;;;;6.45;4.72;;;5.30;58.80;;;;;;5028510;28;20471;-76
2024/02/24 01:11:19;;;;;;;7.32;4.97;;;5.30;58.80;;;;;;5031368;28;20040;-76
2024/02/24 01:14:03;;;;;;;7.85;5.65;;;5.30;58.80;;;;;;5037169;28;20063;-75
2024/02/24 01:16:48;;;;;;;5.60;4.93;;;5.20;58.70;;;;;;5035564;28;20479;-75
2024/02/24 01:19:32;;;;;;;6.22;5.28;;;5.20;58.70;;;;;;5029235;28;20237;-75
2024/02/24 01:22:17;;;;;;;7.55;5.20;;;5.20;58.70;;;;;;5038859;28;20539;-76
2024/02/24 01:25:02;;;;;;;7.80;5.55;;;5.20;58.80;;;;;;5035999;28;20039;-75
2024/02/24 01:27:46;;;;;;;7.72;5.15;;;5.10;58.50;;;;;;5035600;28;20392;-75
2024/02/24 01:30:31;;;;;;;8.13;5.80;;;5.10;58.60;;;;;;5039616;28;20067;-75
2024/02/24 01:33:16;;;;;;;7.40;5.15;;;5.10;58.60;;;;;;5030381;28;20298;-76
2024/02/24 01:36:00;;;;;;;8.38;6.03;;;5.10;58.60;;;;;;5036866;28;20032;-76
2024/02/24 01:38:45;;;;;;;6.88;5.45;;;5.00;58.50;;;;;;5029758;28;20040;-78
2024/02/24 01:41:29;;;;;;;6.43;5.20;;;5.00;58.50;;;;;;5033305;28;20044;-78
2024/02/24 01:44:18;;;;;;;7.85;5.35;;;5.00;58.60;;;;;;5024217;28;20056;-78
2024/02/24 01:47:03;;;;;;;6.63;5.05;;;5.00;58.60;;;;;;5037375;28;20155;-77
2024/02/24 01:49:47;;;;;;;6.65;5.35;;;4.90;58.60;;;;;;5034184;28;20516;-79
2024/02/24 01:52:33;;;;;;;6.88;4.93;;;4.90;58.50;;;;;;5035090;28;20761;-78
2024/02/24 01:55:18;;;;;;;6.72;5.00;;;4.90;58.50;;;;;;5038632;28;20106;-77
2024/02/24 01:58:03;;;;;;;7.07;5.03;;;4.90;58.60;;;;;;5032358;28;20044;-78
2024/02/24 02:00:49;;;;;;;7.38;5.60;;;4.80;58.40;;;;;;5035911;28;20446;-77
2024/02/24 02:03:37;;;;;;;6.53;5.35;;;4.80;58.40;;;;;;5038276;28;20111;-78
2024/02/24 02:06:28;;;;;;;6.50;4.95;;;4.90;58.60;;;;;;5030489;28;20342;-77
2024/02/24 02:09:12;;;;;;;7.53;5.60;;;4.80;58.50;;;;;;5040119;28;20118;-78
2024/02/24 02:11:57;;;;;;;7.18;4.78;;;4.80;58.50;;;;;;5033543;28;20396;-77
2024/02/24 02:14:41;;;;;;;7.15;4.93;;;4.90;58.60;;;;;;5035222;28;20111;-78
2024/02/24 02:17:26;;;;;;;5.30;4.45;;;4.90;58.60;;;;;;5040886;28;20222;-77
2024/02/24 02:20:11;;;;;;;7.45;5.07;;;4.80;58.40;;;;;;5030392;28;20518;-78
2024/02/24 02:22:56;;;;;;;7.45;4.95;;;4.80;58.40;;;;;;5046972;28;20047;-78
2024/02/24 02:25:41;;;;;;;6.57;4.82;;;4.80;58.40;;;;;;5042001;28;20044;-78
2024/02/24 02:28:25;;;;;;;6.72;4.85;;;4.80;58.40;;;;;;5037625;28;20051;-77
2024/02/24 02:31:10;;;;;;;6.45;4.75;;;4.80;58.50;;;;;;5033713;28;20444;-77
2024/02/24 02:33:54;;;;;;;6.43;4.90;;;4.80;58.50;;;;;;5042897;28;20449;-77
2024/02/24 02:36:40;;;;;;;6.15;4.45;;;4.80;58.50;;;;;;5043057;28;20439;-77
2024/02/24 02:39:25;;;;;;;6.90;5.47;;;4.80;58.50;;;;;;5043527;28;20128;-76
2024/02/24 02:42:11;;;;;;;7.60;5.38;;;4.80;58.50;;;;;;5032692;28;20036;-78
2024/02/24 02:44:55;;;;;;;8.23;4.72;;;4.80;58.50;;;;;;5031016;28;20126;-78
2024/02/24 02:47:40;;;;;;;9.63;5.10;;;4.80;58.50;;;;;;5045163;28;20404;-78
2024/02/24 02:50:24;;;;;;;11.13;5.88;;;4.80;58.50;;;;;;5036777;28;20224;-77
2024/02/24 02:53:09;;;;;;;7.45;5.20;;;4.80;58.50;;;;;;5044748;28;20264;-77
2024/02/24 02:55:55;;;;;;;5.38;4.63;;;4.80;58.50;;;;;;5037610;28;20071;-78
2024/02/24 02:58:39;;;;;;;6.95;5.30;;;4.90;58.70;;;;;;5049345;28;20158;-78
2024/02/24 03:01:25;;;;;;;8.85;4.95;;;4.90;58.60;;;;;;5048076;28;20071;-77
2024/02/24 03:04:09;;;;;;;7.30;5.15;;;4.90;58.60;;;;;;5044161;28;20407;-77
2024/02/24 03:06:55;;;;;;;6.63;4.55;;;4.90;58.60;;;;;;5048576;28;20056;-78
2024/02/24 03:09:39;;;;;;;6.10;5.22;;;4.90;58.50;;;;;;5038814;28;20515;-77
2024/02/24 03:12:26;;;;;;;5.60;4.75;;;4.90;58.50;;;;;;5048637;28;20076;-78
2024/02/24 03:15:10;;;;;;;6.18;4.85;;;4.90;58.50;;;;;;5039003;28;20040;-78
2024/02/24 03:17:55;;;;;;;7.20;6.03;;;5.00;58.60;;;;;;5039369;28;20436;-78
2024/02/24 03:20:40;;;;;;;6.75;4.43;;;4.90;58.50;;;;;;5044286;28;20129;-78
2024/02/24 03:23:25;;;;;;;8.50;5.85;;;4.90;58.50;;;;;;5043763;28;20538;-77
2024/02/24 03:26:10;;;;;;;8.82;5.32;;;4.90;58.50;;;;;;5041567;28;20040;-78
2024/02/24 03:28:56;;;;;;;6.50;5.10;;;4.90;58.50;;;;;;5044056;28;20225;-78
2024/02/24 03:31:40;;;;;;;7.05;5.05;;;4.80;58.30;;;;;;5046188;28;20246;-78
2024/02/24 03:34:25;;;;;;;5.70;4.80;;;4.80;58.40;;;;;;5038588;28;20108;-77
2024/02/24 03:37:10;;;;;;;7.25;5.07;;;4.80;58.40;;;;;;5034126;28;20095;-78
2024/02/24 03:39:54;;;;;;;7.82;5.30;;;4.80;58.50;;;;;;5046397;28;20044;-79
2024/02/24 03:42:39;;;;;;;6.85;5.03;;;4.80;58.50;;;;;;5041225;28;20044;-78
2024/02/24 03:45:23;;;;;;;5.75;4.63;;;4.80;58.60;;;;;;5035302;28;20066;-78
2024/02/24 03:48:08;;;;;;;5.32;4.38;;;4.80;58.60;;;;;;5041237;28;20043;-78
2024/02/24 03:50:54;;;;;;;6.35;4.28;;;4.80;58.60;;;;;;5038749;28;20137;-78
2024/02/24 03:53:39;;;;;;;6.97;5.20;;;4.80;58.50;;;;;;5042393;28;20567;-78
2024/02/24 03:56:24;;;;;;;6.63;5.20;;;4.80;58.50;;;;;;5043538;28;20044;-77
2024/02/24 03:59:08;;;;;;;7.93;4.80;;;4.80;58.50;;;;;;5041996;28;20463;-78
2024/02/24 04:01:53;;;;;;;5.38;4.03;;;4.90;58.60;;;;;;5047888;28;20128;-78
2024/02/24 04:04:38;;;;;;;5.13;4.07;;;4.80;58.40;;;;;;5047024;28;20048;-77
2024/02/24 04:07:22;;;;;;;5.70;4.13;;;4.80;58.40;;;;;;5047693;28;20039;-77
2024/02/24 04:10:07;;;;;;;5.13;3.80;;;4.80;58.40;;;;;;5046246;28;20043;-77
2024/02/24 04:12:51;;;;;;;4.70;4.20;;;4.90;58.60;;;;;;5041178;28;20082;-78
2024/02/24 04:15:36;;;;;;;5.53;4.10;;;4.90;58.60;;;;;;5046836;28;20051;-78
2024/02/24 04:18:21;;;;;;;5.80;4.03;;;4.90;58.60;;;;;;5043584;28;20043;-78
2024/02/24 04:21:05;;;;;;;5.50;3.63;;;4.90;58.60;;;;;;5037727;28;20036;-78
2024/02/24 04:23:50;;;;;;;4.03;3.20;;;4.90;58.60;;;;;;5046147;28;20056;-77
2024/02/24 04:26:35;;;;;;;5.43;3.40;;;4.90;58.50;;;;;;5045994;28;20086;-76
2024/02/24 04:29:19;;;;;;;4.28;2.90;;;4.80;58.40;;;;;;5035043;28;20079;-77
2024/02/24 04:32:04;;;;;;;3.58;2.95;;;4.90;58.60;;;;;;5040265;28;20060;-76
2024/02/24 04:34:49;;;;;;;3.35;2.90;;;4.90;58.60;;;;;;5041641;28;20048;-77
2024/02/24 04:37:33;;;;;;;3.83;2.75;;;4.90;58.60;;;;;;5045022;28;20099;-76
2024/02/24 04:40:19;;;;;;;4.05;2.95;;;4.90;58.60;;;;;;5042322;28;20056;-76
2024/02/24 04:43:04;;;;;;;3.53;2.53;;;4.90;58.50;;;;;;5047078;28;20095;-77
2024/02/24 04:45:48;;;;;;;4.47;2.80;;;4.90;58.50;;;;;;5038915;28;20513;-77
2024/02/24 04:48:33;;;;;;;3.47;2.20;;;4.90;58.50;;;;;;5041639;28;20507;-77
2024/02/24 04:51:18;;;;;;;3.42;2.10;;;5.00;58.70;;;;;;5034698;28;20574;-77
2024/02/24 04:54:02;;;;;;;3.15;2.33;;;5.00;58.70;;;;;;5045394;28;20051;-77
2024/02/24 04:56:47;;;;;;;4.55;2.13;;;4.90;58.50;;;;;;5044428;28;20230;-77
2024/02/24 04:59:31;;;;;;;4.03;2.00;;;5.00;58.60;;;;;;5046202;28;20099;-77
2024/02/24 05:02:16;;;;;;;3.03;2.20;;;5.00;58.70;;;;;;5046105;28;20175;-77
2024/02/24 05:05:04;;;;;;;4.30;1.90;;;5.00;58.60;;;;;;5037374;28;20079;-77
2024/02/24 05:07:48;;;;;;;2.08;1.50;;;5.00;58.60;;;;;;5046336;28;20113;-77
2024/02/24 05:10:33;;;;;;;2.38;1.77;;;4.90;58.50;;;;;;5043150;28;20110;-77
2024/02/24 05:13:18;;;;;;;3.00;2.38;;;4.90;58.50;;;;;;5035853;28;20290;-76
2024/02/24 05:16:06;;;;;;;3.80;1.67;;;4.90;58.50;;;;;;5036746;28;20613;-76
2024/02/24 05:18:50;;;;;;;3.78;1.50;;;4.90;58.50;;;;;;5044115;28;20136;-75
2024/02/24 05:21:36;;;;;;;3.78;1.90;;;4.90;58.60;;;;;;5037643;28;20035;-75
2024/02/24 05:24:20;;;;;;;3.08;1.52;;;4.90;58.60;;;;;;5021381;28;20321;-75
2024/02/24 05:27:05;;;;;;;3.70;1.95;;;4.80;58.50;;;;;;5044541;28;20408;-75
2024/02/24 05:29:49;;;;;;;3.42;1.52;;;4.80;58.50;;;;;;5043731;28;20125;-74
2024/02/24 05:32:34;;;;;;;2.22;1.38;;;4.80;58.50;;;;;;5038576;28;20048;-75
2024/02/24 05:35:18;;;;;;;1.88;1.30;;;4.80;58.50;;;;;;5041384;28;20039;-75
2024/02/24 05:38:03;;;;;;;2.05;1.55;;;4.80;58.50;;;;;;5046882;28;20395;-76
2024/02/24 05:40:48;;;;;;;3.88;1.40;;;4.70;58.40;;;;;;5044464;28;20035;-76
2024/02/24 05:43:34;;;;;;;4.18;1.67;;;4.70;58.40;;;;;;5035491;28;20506;-76
2024/02/24 05:46:19;;;;;;;2.30;1.30;;;4.70;58.40;;;;;;5044500;28;20400;-77
2024/02/24 05:49:03;;;;;;;2.55;1.40;;;4.70;58.40;;;;;;5035136;28;21586;-76
2024/02/24 05:51:48;;;;;;;1.58;1.33;;;4.70;58.40;;;;;;5030681;28;20036;-76
2024/02/24 05:54:38;;;;;;;1.65;1.13;;;4.70;58.40;;;;;;5040668;28;20079;-77
2024/02/24 05:57:24;;;;;;;3.30;1.45;;;4.70;58.40;;;;;;5042723;28;20092;-77
2024/02/24 06:00:11;;;;;;;2.47;1.38;;;4.70;58.40;;;;;;5040406;28;20525;-78
2024/02/24 06:02:58;;;;;;;3.85;1.48;;;4.70;58.40;;;;;;5043455;28;20052;-77
2024/02/24 06:05:42;;;;;;;1.60;1.27;;;4.70;59.00;;;;;;5042104;28;20522;-77
2024/02/24 06:08:27;;;;;;;3.08;1.15;;;4.70;58.40;;;;;;5037163;28;20540;-76
2024/02/24 06:11:12;;;;;;;2.30;1.42;;;4.70;58.40;;;;;;5036919;28;20043;-74
2024/02/24 06:13:56;;;;;;;2.05;1.33;;;4.70;58.40;;;;;;5044371;28;20040;-74
2024/02/24 06:16:41;;;;;;;2.13;1.38;;;4.80;58.60;;;;;;5054590;28;20039;-77
2024/02/24 06:19:25;;;;;;;3.67;1.20;;;4.70;58.40;;;;;;5058206;28;20089;-78
2024/02/24 06:22:10;;;;;;;3.80;1.00;;;4.70;58.40;;;;;;5048581;28;20039;-78
2024/02/24 06:24:54;;;;;;;2.75;1.13;;;4.80;58.60;;;;;;5054840;28;20075;-78
2024/02/24 06:27:39;;;;;;;3.85;1.30;;;4.80;58.60;;;;;;5053765;28;20579;-78
2024/02/24 06:30:24;;;;;;;4.25;1.23;;;4.80;58.50;;;;;;5035155;28;20051;-78
2024/02/24 06:33:08;;;;;;;2.28;1.10;;;4.80;58.50;;;;;;5041197;28;20937;-78
2024/02/24 06:35:53;;;;;;;1.50;1.30;;;4.80;58.50;;;;;;5031241;28;20456;-78
2024/02/24 06:38:38;;;;;;;1.60;1.08;;;4.80;58.50;;;;;;5039952;28;20456;-78
2024/02/24 06:41:24;;;;;;;1.58;1.48;;;4.80;58.50;;;;;;5052500;28;20044;-78
2024/02/24 06:44:08;;;;;;;2.42;1.40;;;4.90;58.70;;;;;;5033214;28;20132;-77
2024/02/24 06:46:53;;;;;;;2.38;1.00;;;4.90;58.70;;;;;;5042185;28;20055;-79
2024/02/24 06:49:38;;;;;;;3.13;1.55;;;4.90;58.70;;;;;;5035856;28;20052;-78
2024/02/24 06:52:23;;;;;;;3.55;1.42;;;4.90;58.70;;;;;;5037297;28;20584;-79
2024/02/24 06:55:07;;;;;;;2.03;1.25;;;4.90;58.60;;;;;;5036977;28;20758;-78
2024/02/24 06:57:52;;;;;;;1.90;1.42;;;4.90;59.20;;;;;;5037717;28;20187;-77
2024/02/24 07:00:37;;;;;;;1.35;1.10;;;4.90;58.60;;;;;;5040185;28;20043;-78
2024/02/24 07:03:21;;;;;;;2.63;1.33;;;5.00;58.80;;;;;;5040334;28;20040;-77
2024/02/24 07:06:05;;;;;;;1.58;1.13;;;5.00;58.80;;;;;;5037830;28;20090;-78
2024/02/24 07:08:50;;;;;;;2.20;1.15;;;5.00;58.80;;;;;;5035604;28;20040;-76
2024/02/24 07:11:35;;;;;;;2.17;1.48;;;5.00;58.80;;;;;;5028024;28;20374;-78
2024/02/24 07:14:20;;;;;;;3.00;1.20;;;5.00;58.80;;;;;;5034749;28;20136;-77
2024/02/24 07:17:05;;;;;;;1.45;1.05;;;5.00;58.80;;;;;;5035889;28;20453;-77
2024/02/24 07:19:49;;;;;;;2.95;1.40;;;5.00;58.80;;;;;;5034123;28;20079;-77
2024/02/24 07:22:34;;;;;;;2.72;1.48;;;5.00;58.80;;;;;;5036976;28;20186;-75
2024/02/24 07:25:19;;;;;;;1.75;1.20;;;5.00;58.80;;;;;;5034612;28;20048;-76
2024/02/24 07:28:04;;;;;;;2.58;2.22;;;5.10;59.00;;;;;;5031969;28;20524;-75
2024/02/24 07:30:48;;;;;;;2.75;1.40;;;5.10;59.20;;;;;;5039645;28;20035;-75
2024/02/24 07:33:33;;;;;;;2.17;1.45;;;5.20;59.60;;;;;;5037086;28;20052;-78
2024/02/24 07:36:18;;;;;;;2.15;1.52;;;5.30;60.00;;;;;;5035671;28;20044;-75
2024/02/24 07:39:04;;;;;;;3.65;1.83;;;5.40;60.20;;;;;;5034196;28;20070;-77
2024/02/24 07:41:49;;;;;;;3.85;1.75;;;5.40;60.20;;;;;;5019871;28;20400;-76
2024/02/24 07:44:34;;;;;;;4.15;1.92;;;5.60;61.00;;;;;;5034499;28;20056;-76
2024/02/24 07:47:18;;;;;;;3.40;1.63;;;5.70;61.20;;;;;;5039182;28;20098;-76
2024/02/24 07:50:03;;;;;;;2.42;1.60;;;5.90;61.50;;;;;;5016716;28;20111;-76
2024/02/24 07:52:48;;;;;;;3.20;1.98;;;6.00;61.70;;;;;;5040048;28;20091;-75
2024/02/24 07:55:32;;;;;;;5.20;1.58;;;6.10;61.80;;;;;;5036604;28;20120;-76
2024/02/24 07:58:17;;;;;;;3.38;1.52;;;6.10;61.90;;;;;;5036450;28;20035;-77
2024/02/24 08:01:01;;;;;;;1.75;1.63;;;6.10;61.90;;;;;;5037028;28;20477;-76
2024/02/24 08:03:46;;;;;;;2.08;1.38;;;6.10;62.10;;;;;;5021356;28;20410;-78
2024/02/24 08:06:31;;;;;;;2.45;1.80;;;6.10;62.10;;;;;;5034984;28;20113;-76
2024/02/24 08:09:17;;;;;;;4.45;1.80;;;6.10;62.10;;;;;;5035283;28;20574;-75
2024/02/24 08:12:01;;;;;;;2.42;1.77;;;6.10;62.20;;;;;;5028903;28;20112;-75
2024/02/24 08:14:46;;;;;;;4.50;1.95;;;6.10;62.20;;;;;;5028953;28;20098;-76
2024/02/24 08:17:31;;;;;;;1.55;1.33;;;6.10;62.30;;;;;;5035625;28;20109;-76
2024/02/24 08:20:16;;;;;;;2.67;1.45;;;6.10;62.30;;;;;;5010431;28;20515;-74
2024/02/24 08:23:00;;;;;;;2.65;1.45;;;6.10;62.30;;;;;;5033746;28;20448;-76
2024/02/24 08:25:45;;;;;;;2.67;1.50;;;6.10;62.20;;;;;;5033957;28;20382;-74
2024/02/24 08:28:29;;;;;;;2.78;1.80;;;6.20;62.40;;;;;;5032617;28;20035;-74
2024/02/24 08:31:14;;;;;;;1.77;1.27;;;6.20;62.40;;;;;;5032857;28;20459;-74
2024/02/24 08:33:58;;;;;;;2.30;1.30;;;6.20;62.30;;;;;;5031522;28;20086;-74
2024/02/24 08:36:44;;;;;;;2.80;1.77;;;6.20;62.30;;;;;;5017927;28;20106;-74
2024/02/24 08:39:31;;;;;;;3.20;1.55;;;6.20;62.30;;;;;;5035944;28;20094;-74
2024/02/24 08:42:15;;;;;;;2.97;1.65;;;6.20;62.30;;;;;;5033554;28;20574;-74
2024/02/24 08:45:00;;;;;;;1.50;1.13;;;6.30;62.40;;;;;;5032174;28;20148;-73
2024/02/24 08:47:45;;;;;;;2.70;1.67;;;6.30;62.40;;;;;;5032646;28;20052;-74
2024/02/24 08:50:30;;;;;;;3.83;1.55;;;6.30;62.40;;;;;;5030973;28;20044;-73
2024/02/24 08:53:15;;;;;;;3.22;1.52;;;6.40;62.50;;;;;;5040702;28;20384;-76
2024/02/24 08:56:01;;;;;;;3.83;1.45;;;6.50;63.00;;;;;;5037459;28;20040;-76
2024/02/24 08:58:46;;;;;;;2.47;1.40;;;6.60;63.30;;;;;;5035638;28;20635;-75
2024/02/24 09:01:31;;;;;;;2.70;1.40;;;6.80;63.70;;;;;;5034140;28;20119;-74
2024/02/24 09:04:15;;;;;;;3.15;1.60;;;6.80;63.60;;;;;;5033987;28;20053;-74
2024/02/24 09:06:59;;;;;;;3.17;1.73;;;7.00;63.90;;;;;;5034654;28;20028;-74
2024/02/24 09:09:44;;;;;;;2.63;1.50;;;7.00;63.90;;;;;;5034946;28;20124;-74
2024/02/24 09:12:29;;;;;;;4.15;1.10;;;7.10;64.00;;;;;;5035694;28;20071;-76
2024/02/24 09:15:14;;;;;;;4.13;1.48;;;7.10;64.00;;;;;;5020288;28;20534;-76
2024/02/24 09:17:59;;;;;;;4.35;1.55;;;7.20;64.20;;;;;;5038281;28;20044;-75
2024/02/24 09:20:44;;;;;;;2.42;1.50;;;7.20;64.20;;;;;;5031536;28;20093;-77
2024/02/24 09:23:29;;;;;;;4.38;1.67;;;7.30;64.30;;;;;;5042876;28;20403;-76
2024/02/24 09:26:15;;;;;;;2.35;1.40;;;7.30;64.30;;;;;;5044505;28;20089;-76
2024/02/24 09:28:59;;;;;;;4.07;1.67;;;7.40;64.90;;;;;;5034820;28;20083;-76
2024/02/24 09:31:44;;;;;;;2.08;1.45;;;7.40;64.40;;;;;;5037731;28;20055;-77
2024/02/24 09:34:29;;;;;;;4.35;1.73;;;7.40;64.40;;;;;;5040179;28;20048;-76
2024/02/24 09:37:14;;;;;;;2.80;1.63;;;7.40;64.40;;;;;;5041475;28;20060;-76
2024/02/24 09:40:00;;;;;;;2.67;1.40;;;7.40;64.40;;;;;;5034144;28;20048;-77
2024/02/24 09:42:44;;;;;;;2.53;1.60;;;7.40;64.40;;;;;;5037132;28;20040;-76
2024/02/24 09:45:41;;;;;;;1.85;1.20;;;7.40;64.30;;;;;;5034904;28;20499;-75
2024/02/24 09:48:29;;;;;;;3.40;1.75;;;7.50;64.50;;;;;;5036376;28;20068;-76
2024/02/24 09:51:13;;;;;;;3.95;1.50;;;7.60;64.50;;;;;;5034710;28;20075;-75
2024/02/24 09:53:58;;;;;;;3.65;1.48;;;7.60;64.50;;;;;;5039106;28;20082;-77
2024/02/24 09:56:44;;;;;;;2.45;0.98;;;7.70;64.50;;;;;;5019919;28;20051;-76
2024/02/24 09:59:29;;;;;;;3.95;1.40;;;7.80;64.60;;;;;;5038099;28;20132;-76
2024/02/24 10:02:14;;;;;;;2.92;1.55;;;7.80;64.50;;;;;;5038351;28;20039;-76
2024/02/24 10:04:59;;;;;;;2.33;1.30;;;7.90;64.50;;;;;;5030859;28;20670;-76
2024/02/24 10:07:47;;;;;;;4.75;1.67;;;8.00;64.50;;;;;;5040277;28;20052;-76
2024/02/24 10:10:32;;;;;;;2.22;1.40;;;8.10;64.60;;;;;;5037011;28;20391;-76
2024/02/24 10:13:19;;;;;;;2.17;1.52;;;8.20;65.10;;;;;;5033818;28;20122;-77
2024/02/24 10:16:06;;;;;;;3.67;1.20;;;8.20;64.40;;;;;;5033462;28;20036;-75
2024/02/24 10:18:50;;;;;;;2.95;1.40;;;8.40;64.60;;;;;;5042282;28;20503;-75
2024/02/24 10:21:35;;;;;;;2.42;1.00;;;8.50;64.60;;;;;;5034377;28;20071;-75
2024/02/24 10:24:20;;;;;;;4.32;1.60;;;8.60;64.50;;;;;;5036378;28;20060;-75
2024/02/24 10:27:06;;;;;;;2.78;1.33;;;8.70;64.50;;;;;;5037411;28;20068;-75
2024/02/24 10:29:51;;;;;;;2.13;1.38;;;8.80;64.60;;;;;;5035194;28;20449;-76
2024/02/24 10:32:36;;;;;;;3.33;1.10;;;8.90;64.50;;;;;;5039350;28;20072;-75
2024/02/24 10:35:21;;;;;;;2.50;1.20;;;9.10;64.70;;;;;;5031849;28;20044;-75
2024/02/24 10:38:07;;;;;;;2.15;1.15;;;9.20;64.60;;;;;;5037128;28;20105;-77
2024/02/24 10:40:52;;;;;;;2.35;0.90;;;9.40;64.70;;;;;;5035242;28;20082;-77
2024/02/24 10:43:38;;;;;;;1.23;0.85;;;9.50;64.60;;;;;;5034586;28;20102;-77
2024/02/24 10:46:23;;;;;;;1.73;0.90;;;9.60;65.00;;;;;;5034343;28;20043;-77
2024/02/24 10:49:07;;;;;;;1.80;0.93;;;9.70;64.50;;;;;;5038824;28;20627;-77
2024/02/24 10:51:53;;;;;;;2.60;0.95;;;9.80;64.50;;;;;;5039298;28;20613;-78
2024/02/24 10:54:39;;;;;;;2.03;0.68;;;9.90;64.50;;;;;;5032914;28;20141;-78
2024/02/24 10:57:24;;;;;;;1.52;0.82;;;9.90;64.40;;;;;;5038418;28;20120;-76
2024/02/24 11:00:31;;;;;;;1.15;0.82;;;10.00;64.40;;;;;;5040422;28;20090;-77
2024/02/24 11:03:15;;;;;;;1.15;0.60;;;10.10;64.50;;;;;;5035738;28;20060;-76
2024/02/24 11:06:02;;;;;;;0.80;0.70;;;10.20;64.50;;;;;;5023943;28;20119;-77
2024/02/24 11:08:48;;;;;;;1.30;0.70;;;10.30;64.50;;;;;;5035095;28;20044;-76
2024/02/24 11:11:33;;;;;;;1.30;0.80;;;10.40;64.40;;;;;;5036323;28;20041;-75
2024/02/24 11:14:20;;;;;;;1.75;0.50;;;10.60;64.50;;;;;;5034811;28;20044;-76
2024/02/24 11:17:04;;;;;;;0.88;0.50;;;10.70;64.40;;;;;;5036579;28;20063;-75
2024/02/24 11:19:48;;;;;;;0.60;0.60;;;10.80;64.30;;;;;;5036582;28;20056;-74
2024/02/24 11:22:33;;;;;;;1.33;0.65;;;10.90;64.30;;;;;;5032340;28;20083;-74
2024/02/24 11:25:18;;;;;;;1.55;0.70;;;11.00;64.20;;;;;;5037292;28;20593;-74
2024/02/24 11:28:03;;;;;;;0.80;0.60;;;11.00;64.00;;;;;;5034903;28;20778;-76
2024/02/24 11:30:54;;;;;;;1.23;0.65;;;11.10;64.10;;;;;;5036352;28;20044;-76
2024/02/24 11:33:40;;;;;;;0.60;0.47;;;11.20;64.10;;;;;;5038999;28;20477;-76
2024/02/24 11:36:25;;;;;;;1.30;0.50;;;11.30;64.20;;;;;;5041100;28;20040;-76
2024/02/24 11:39:12;;;;;;;0.35;0.30;;;11.30;64.00;;;;;;5020830;28;20098;-78
2024/02/24 11:41:57;;;;;;;0.55;0.40;;;11.40;64.00;;;;;;5036248;28;20730;-74
2024/02/24 11:44:45;;;;;;;1.05;0.47;;;11.50;64.10;;;;;;5032031;28;20349;-74
2024/02/24 11:47:32;;;;;;;1.30;0.30;;;11.60;64.20;;;;;;5036888;28;20090;-74
2024/02/24 11:50:17;;;;;;;0.52;0.40;;;11.70;64.30;;;;;;5035210;28;20412;-75
2024/02/24 11:53:02;;;;;;;1.65;0.52;;;11.90;64.40;;;;;;5038271;28;20048;-74
2024/02/24 11:55:48;;;;;;;0.50;0.50;;;12.00;64.40;;;;;;5019481;28;20039;-75
2024/02/24 11:58:32;;;;;;;1.48;0.65;;;12.10;64.30;;;;;;5033873;28;20039;-74
2024/02/24 12:01:16;;;;;;;1.75;0.40;;;12.20;64.30;;;;;;5032313;28;20093;-78
2024/02/24 12:04:01;;;;;;;1.65;0.40;;;12.30;64.20;;;;;;5034228;28;20131;-75
2024/02/24 12:06:47;;;;;;;0.90;0.40;;;12.40;64.10;;;;;;5031781;28;20456;-76
2024/02/24 12:09:32;;;;;;;1.10;0.52;;;12.60;64.20;;;;;;5033723;28;20106;-76
2024/02/24 12:12:17;;;;;;;0.73;0.30;;;12.70;64.20;;;;;;5045071;28;20044;-74
2024/02/24 12:15:02;;;;;;;1.10;0.45;;;12.80;64.10;;;;;;5032414;28;20094;-75
2024/02/24 12:17:48;;;;;;;0.28;0.28;;;12.90;64.10;;;;;;5044174;28;20043;-74
2024/02/24 12:20:41;;;;;;;2.38;0.60;;;12.90;63.90;;;;;;5036876;28;20039;-75
2024/02/24 12:23:30;;;;;;;0.68;0.40;;;12.90;63.70;;;;;;5032399;28;20076;-74
2024/02/24 12:26:16;;;;;;;0.40;0.40;;;13.00;63.90;;;;;;5039059;28;20039;-74
2024/02/24 12:29:04;;;;;;;0.47;0.40;;;12.90;63.70;;;;;;5031825;28;20079;-74
2024/02/24 12:31:48;;;;;;;1.17;0.52;;;12.90;63.70;;;;;;5030070;28;20055;-73
2024/02/24 12:34:32;;;;;;;2.00;0.70;;;13.00;63.80;;;;;;5049821;28;20067;-73
2024/02/24 12:37:19;;;;;;;1.27;0.77;;;13.00;63.70;;;;;;5036521;28;20404;-74
2024/02/24 12:40:04;;;;;;;0.73;0.40;;;13.00;63.60;;;;;;5034939;28;20095;-74
2024/02/24 12:42:49;;;;;;;1.23;0.50;;;13.10;63.60;;;;;;5021340;28;20184;-74
2024/02/24 12:45:33;;;;;;;1.63;0.60;;;13.10;63.40;;;;;;5035393;28;20455;-73
2024/02/24 12:48:18;;;;;;;0.90;0.50;;;13.20;63.40;;;;;;5035835;28;20091;-73
2024/02/24 12:51:02;;;;;;;1.08;0.47;;;13.20;63.20;;;;;;5033363;28;20159;-74
2024/02/24 12:53:47;;;;;;;1.60;0.55;;;13.30;63.10;;;;;;5037627;28;20098;-74
2024/02/24 12:56:31;;;;;;;1.70;0.55;;;13.40;63.00;;;;;;5035151;28;20043;-73
2024/02/24 12:59:18;;;;;;;1.58;0.70;;;13.50;63.00;;;;;;5035391;28;20165;-74
2024/02/24 13:02:02;;;;;;;1.60;0.55;;;13.50;62.70;;;;;;5037199;28;20403;-74
2024/02/24 13:04:47;;;;;;;0.82;0.70;;;13.60;62.70;;;;;;5034435;28;20333;-75
2024/02/24 13:07:32;;;;;;;3.67;3.05;;;13.70;62.70;;;;;;5034302;28;20418;-74
2024/02/24 13:10:17;;;;;;;2.22;2.03;;;13.80;62.70;;;;;;5036759;28;20239;-74
2024/02/24 13:13:01;;;;;;;2.50;1.70;;;13.80;62.50;;;;;;5037300;28;20570;-75
2024/02/24 13:15:46;;;;;;;2.20;1.60;;;14.00;62.60;;;;;;5037553;28;20404;-75
2024/02/24 13:18:31;;;;;;;2.17;1.40;;;14.00;62.40;;;;;;5032647;28;20091;-74
2024/02/24 13:21:15;;;;;;;2.05;1.20;;;14.10;62.30;;;;;;5036304;28;20455;-73
2024/02/24 13:24:01;;;;;;;2.08;1.30;;;14.10;62.10;;;;;;5029996;28;20431;-74
2024/02/24 13:26:46;;;;;;;2.50;1.25;;;14.20;62.00;;;;;;5021392;28;20064;-73
2024/02/24 13:29:30;;;;;;;1.42;1.15;;;14.20;61.90;;;;;;5037829;28;20051;-74
2024/02/24 13:32:15;;;;;;;1.30;0.98;;;14.20;61.70;;;;;;5034766;28;20179;-74
2024/02/24 13:35:00;;;;;;;2.80;1.15;;;14.30;61.70;;;;;;5035397;28;20084;-74
2024/02/24 13:37:45;;;;;;;1.20;1.10;;;14.30;61.60;;;;;;5041826;28;20044;-73
2024/02/24 13:40:31;;;;;;;2.35;1.50;;;14.30;61.40;;;;;;5033431;28;20321;-74
2024/02/24 13:43:17;;;;;;;1.73;1.00;;;14.40;61.40;;;;;;5036061;28;20417;-74
2024/02/24 13:46:01;;;;;;;1.67;1.02;;;14.40;61.20;;;;;;5035701;28;20401;-75
2024/02/24 13:48:46;;;;;;;1.38;0.80;;;14.40;60.90;;;;;;5039096;28;20126;-74
2024/02/24 13:51:31;;;;;;;3.08;1.33;;;14.40;60.80;;;;;;5036300;28;20550;-74
2024/02/24 13:54:16;;;;;;;1.58;1.10;;;14.40;60.70;;;;;;5034728;28;20282;-74
2024/02/24 13:57:02;;;;;;;1.08;0.95;;;14.40;61.10;;;;;;5031934;28;20086;-74
2024/02/24 13:59:46;;;;;;;2.85;0.90;;;14.40;60.50;;;;;;5028768;28;20460;-74
2024/02/24 14:02:34;;;;;;;1.10;0.80;;;14.40;60.40;;;;;;5036560;28;20051;-75
2024/02/24 14:05:18;;;;;;;1.27;0.80;;;14.40;60.30;;;;;;5031409;28;20531;-75
2024/02/24 14:08:04;;;;;;;1.02;0.75;;;14.40;60.20;;;;;;5036146;28;20435;-75
2024/02/24 14:10:48;;;;;;;1.60;1.08;;;14.40;60.10;;;;;;5036732;28;20045;-76
2024/02/24 14:13:33;;;;;;;1.38;1.10;;;14.50;60.10;;;;;;5046629;28;20044;-75
2024/02/24 14:16:19;;;;;;;1.30;0.90;;;14.40;59.80;;;;;;5035128;28;20048;-75
2024/02/24 14:19:03;;;;;;;0.70;0.68;;;14.50;59.90;;;;;;5031191;28;20095;-77
2024/02/24 14:21:48;;;;;;;4.00;0.90;;;14.50;59.80;;;;;;5034412;28;20117;-77
2024/02/24 14:24:34;;;;;;;1.25;0.80;;;14.50;59.60;;;;;;5040434;28;20048;-78
2024/02/24 14:27:18;;;;;;;1.63;0.80;;;14.50;59.50;;;;;;5029618;28;20043;-75
2024/02/24 14:30:03;;;;;;;1.45;0.85;;;14.40;59.30;;;;;;5033692;28;20516;-78